Time;durP1;ratioP1;P1;durP2;ratioP2;P2;SDS_P1;SDS_P2;PMS_P1;PMS_P2;Temp;Humidity;BMP_temperature;BMP_pressure;BME280_temperature;BME280_humidity;BME280_pressure;Samples;Min_cycle;Max_cycle;Signal;HPM_P1;HPM_P2
2022/12/26 00:01:49;;;;;;;111.32;23.60;;;8.90;99.90;;;;;;5997263;23;20023;-87
2022/12/26 00:04:16;;;;;;;89.22;23.85;;;9.00;99.90;;;;;;6046723;23;20338;-88
2022/12/26 00:06:43;;;;;;;75.95;20.33;;;9.00;99.90;;;;;;5998345;23;20461;-89
2022/12/26 00:09:09;;;;;;;68.68;20.30;;;9.00;99.90;;;;;;6022182;23;20027;-89
2022/12/26 00:11:35;;;;;;;79.45;20.17;;;8.90;99.90;;;;;;5998870;23;20106;-88
2022/12/26 00:14:07;;;;;;;66.82;19.85;;;9.00;99.90;;;;;;6022486;23;20023;-89
2022/12/26 00:16:33;;;;;;;132.40;25.00;;;9.00;99.90;;;;;;6000375;23;20722;-88
2022/12/26 00:18:58;;;;;;;67.68;21.42;;;9.00;99.90;;;;;;6023555;23;20066;-88
2022/12/26 00:21:26;;;;;;;70.72;21.13;;;9.00;99.90;;;;;;6000589;23;20015;-90
2022/12/26 00:23:53;;;;;;;67.88;20.50;;;9.00;99.90;;;;;;6023455;23;20019;-88
2022/12/26 00:26:21;;;;;;;73.78;21.38;;;9.00;99.90;;;;;;6024469;23;20324;-88
2022/12/26 00:28:47;;;;;;;82.85;22.45;;;9.00;99.90;;;;;;6000215;23;20022;-89
2022/12/26 00:31:19;;;;;;;60.97;19.73;;;9.00;99.90;;;;;;5998897;23;20071;-88
2022/12/26 00:33:45;;;;;;;67.68;20.42;;;9.00;99.90;;;;;;5998947;23;20469;-88
2022/12/26 00:36:14;;;;;;;74.80;21.15;;;9.00;99.90;;;;;;6000548;23;20021;-89
2022/12/26 00:38:42;;;;;;;70.13;20.27;;;9.00;99.90;;;;;;5999279;23;20030;-88
2022/12/26 00:41:09;;;;;;;64.82;19.98;;;9.00;99.90;;;;;;5999263;23;20023;-88
2022/12/26 00:43:35;;;;;;;85.05;21.98;;;9.00;99.90;;;;;;5999390;23;20023;-89
2022/12/26 00:46:01;;;;;;;69.40;19.85;;;9.00;99.90;;;;;;5999004;23;20019;-88
2022/12/26 00:48:27;;;;;;;69.13;20.65;;;9.00;99.90;;;;;;5999006;23;20450;-89
2022/12/26 00:50:56;;;;;;;83.95;21.20;;;9.00;99.90;;;;;;6022930;23;20061;-88
2022/12/26 00:53:22;;;;;;;73.45;20.00;;;9.00;99.90;;;;;;6000332;23;20364;-88
2022/12/26 00:55:48;;;;;;;83.47;21.05;;;9.00;99.90;;;;;;6024290;23;20353;-90
2022/12/26 00:58:14;;;;;;;77.07;21.60;;;9.00;99.90;;;;;;6000561;23;20253;-89
2022/12/26 01:00:39;;;;;;;78.82;21.33;;;9.00;99.90;;;;;;5999347;23;20019;-88
2022/12/26 01:03:09;;;;;;;61.78;20.33;;;9.00;99.90;;;;;;6024046;23;20447;-88
2022/12/26 01:05:39;;;;;;;69.35;21.35;;;9.00;99.90;;;;;;6023288;23;20352;-89
2022/12/26 01:08:04;;;;;;;69.40;20.65;;;9.00;99.90;;;;;;6000187;23;20029;-88
2022/12/26 01:10:30;;;;;;;70.68;22.15;;;9.00;99.90;;;;;;6001242;23;20098;-88
2022/12/26 01:12:55;;;;;;;64.70;21.70;;;9.00;99.90;;;;;;5999937;23;20241;-88
2022/12/26 01:15:21;;;;;;;71.65;21.92;;;9.00;99.90;;;;;;5999051;23;20046;-89
2022/12/26 01:17:47;;;;;;;64.50;20.65;;;9.00;99.90;;;;;;5999504;23;20025;-88
2022/12/26 01:20:12;;;;;;;109.82;24.73;;;9.00;99.90;;;;;;6000140;23;20017;-88
2022/12/26 01:22:38;;;;;;;73.70;23.55;;;9.00;99.90;;;;;;6000428;23;20019;-88
2022/12/26 01:25:04;;;;;;;93.00;24.70;;;9.00;99.90;;;;;;6000906;23;20059;-88
2022/12/26 01:27:30;;;;;;;79.28;23.90;;;9.00;99.90;;;;;;6000213;23;20609;-88
2022/12/26 01:29:55;;;;;;;75.30;24.33;;;9.00;99.90;;;;;;6000450;23;20094;-88
2022/12/26 01:32:21;;;;;;;85.50;25.13;;;9.00;99.90;;;;;;5998604;23;20026;-89
2022/12/26 01:34:47;;;;;;;95.78;25.85;;;9.00;99.90;;;;;;6000123;23;20015;-89
2022/12/26 01:37:14;;;;;;;69.28;22.80;;;9.00;99.90;;;;;;6023602;23;20390;-90
2022/12/26 01:39:40;;;;;;;64.95;21.92;;;9.00;99.90;;;;;;6000575;23;20449;-89
2022/12/26 01:42:15;;;;;;;85.57;22.75;;;9.00;99.90;;;;;;5999012;23;20022;-88
2022/12/26 01:44:58;;;;;;;63.85;21.17;;;9.00;99.90;;;;;;6000606;23;20023;-88
2022/12/26 01:47:32;;;;;;;63.10;20.13;;;9.00;99.90;;;;;;6024157;23;20049;-88
2022/12/26 01:49:57;;;;;;;53.97;18.17;;;9.00;99.90;;;;;;6022308;23;20035;-88
2022/12/26 01:52:38;;;;;;;54.28;19.00;;;9.00;99.90;;;;;;5999335;23;20125;-87
2022/12/26 01:55:10;;;;;;;67.05;19.85;;;9.00;99.90;;;;;;6023871;23;20333;-88
2022/12/26 01:57:44;;;;;;;64.35;19.95;;;9.00;99.90;;;;;;6022489;23;20023;-88
2022/12/26 02:00:11;;;;;;;62.93;21.23;;;9.00;99.90;;;;;;5998727;23;20465;-89
2022/12/26 02:05:33;;;;;;;52.97;18.92;;;9.00;99.90;;;;;;6021900;23;20030;-88
2022/12/26 02:08:10;;;;;;;56.75;19.10;;;9.10;99.90;;;;;;5999069;23;20019;-89
2022/12/26 02:11:06;;;;;;;47.08;17.80;;;9.10;99.90;;;;;;6023530;23;20030;-89
2022/12/26 02:13:34;;;;;;;46.08;17.02;;;9.00;99.90;;;;;;5975934;23;20019;-88
2022/12/26 02:16:02;;;;;;;50.22;17.60;;;9.10;99.90;;;;;;5999019;23;20067;-88
2022/12/26 02:18:28;;;;;;;44.28;16.58;;;9.00;99.90;;;;;;5998318;23;20058;-88
2022/12/26 02:21:31;;;;;;;44.17;16.13;;;9.10;99.90;;;;;;6022198;23;20310;-88
2022/12/26 02:23:57;;;;;;;40.45;15.00;;;9.10;99.90;;;;;;5929403;23;20034;-88
2022/12/26 02:26:53;;;;;;;44.75;16.13;;;9.10;99.90;;;;;;6023069;23;20055;-87
2022/12/26 02:29:35;;;;;;;40.60;14.95;;;9.10;99.90;;;;;;6021999;23;20019;-88
2022/12/26 02:32:06;;;;;;;36.30;15.57;;;9.00;99.90;;;;;;5997643;23;20023;-88
2022/12/26 02:34:35;;;;;;;37.78;15.68;;;9.10;99.90;;;;;;6021681;23;20019;-88
2022/12/26 02:37:19;;;;;;;33.85;14.90;;;9.10;99.90;;;;;;6021109;23;20019;-89
2022/12/26 02:40:00;;;;;;;36.65;14.98;;;9.10;99.90;;;;;;6022860;23;20016;-88
2022/12/26 02:42:38;;;;;;;35.15;14.45;;;9.10;99.90;;;;;;6021792;23;20023;-88
2022/12/26 02:48:15;;;;;;;37.50;14.48;;;9.10;99.90;;;;;;6021699;23;20082;-88
2022/12/26 03:14:52;;;;;;;45.50;18.23;;;9.20;99.90;;;;;;6020865;23;20019;-88
2022/12/26 03:17:38;;;;;;;39.22;17.73;;;9.30;99.90;;;;;;6020168;23;20365;-89
2022/12/26 03:20:14;;;;;;;40.75;18.13;;;9.30;99.90;;;;;;5997331;23;20019;-88
2022/12/26 03:22:40;;;;;;;43.50;18.80;;;9.30;99.90;;;;;;6020762;23;20019;-87
2022/12/26 03:27:59;;;;;;;41.70;19.98;;;9.30;99.90;;;;;;6023250;23;20461;-88
2022/12/26 03:34:16;;;;;;;46.33;21.23;;;9.30;99.90;;;;;;6022655;23;20175;-90
2022/12/26 03:35:55;;;;;;;43.60;21.92;;;9.30;99.90;;;;;;6021503;23;20023;-88
2022/12/26 03:38:50;;;;;;;45.60;23.02;;;9.30;99.90;;;;;;5999149;23;20015;-89
2022/12/26 04:19:59;;;;;;;52.72;24.20;;;9.40;99.90;;;;;;6023932;23;20019;-89
2022/12/26 04:46:20;;;;;;;58.67;25.00;;;9.40;99.90;;;;;;6023429;23;20034;-89
2022/12/26 04:51:36;;;;;;;56.60;26.35;;;9.30;99.90;;;;;;6023753;23;20103;-89
2022/12/26 04:54:03;;;;;;;56.53;26.23;;;9.30;99.90;;;;;;5999582;23;20015;-89
2022/12/26 04:56:28;;;;;;;54.85;25.00;;;9.20;99.90;;;;;;6000005;23;20023;-89
2022/12/26 04:58:54;;;;;;;60.25;26.92;;;9.20;99.90;;;;;;5998956;23;20167;-88
2022/12/26 05:09:35;;;;;;;53.05;25.58;;;9.00;99.90;;;;;;6024526;23;20058;-89
2022/12/26 05:12:08;;;;;;;52.25;25.80;;;9.00;99.90;;;;;;5998915;23;20054;-88
2022/12/26 05:14:35;;;;;;;48.63;25.30;;;8.90;99.90;;;;;;6000537;23;20059;-89
2022/12/26 05:30:57;;;;;;;42.45;23.42;;;9.10;99.90;;;;;;6023764;23;20027;-88
2022/12/26 05:36:08;;;;;;;40.87;23.27;;;9.00;99.90;;;;;;6023024;23;20142;-88
2022/12/26 05:38:35;;;;;;;40.00;23.77;;;8.90;99.90;;;;;;6000063;23;20174;-89
2022/12/26 05:41:00;;;;;;;39.75;22.65;;;8.90;99.90;;;;;;6022389;23;20015;-89
2022/12/26 05:43:26;;;;;;;42.95;24.00;;;8.90;99.90;;;;;;5999887;23;20096;-89
2022/12/26 05:45:51;;;;;;;42.80;23.27;;;8.90;99.90;;;;;;5999112;23;20485;-89
2022/12/26 05:48:17;;;;;;;44.00;24.38;;;9.00;99.90;;;;;;5999165;23;20087;-89
2022/12/26 05:50:43;;;;;;;38.03;22.02;;;9.00;99.90;;;;;;5999528;23;20023;-90
2022/12/26 05:53:12;;;;;;;40.88;24.65;;;9.00;99.90;;;;;;6023704;23;20046;-88
2022/12/26 05:55:38;;;;;;;41.13;23.80;;;9.00;99.90;;;;;;5999118;23;20142;-90
2022/12/26 05:58:04;;;;;;;40.65;23.13;;;9.00;99.90;;;;;;5999872;23;20077;-89
2022/12/26 06:00:30;;;;;;;39.00;23.02;;;9.00;99.90;;;;;;5997362;23;20046;-88
2022/12/26 06:02:57;;;;;;;38.47;23.73;;;9.00;99.90;;;;;;6000015;23;20023;-89
2022/12/26 06:05:23;;;;;;;39.83;23.67;;;9.00;99.90;;;;;;5976040;23;20023;-88
2022/12/26 06:07:49;;;;;;;33.45;21.40;;;9.00;99.90;;;;;;5976962;23;20020;-89
2022/12/26 06:10:15;;;;;;;36.90;22.45;;;9.00;99.90;;;;;;5976491;23;20023;-90
2022/12/26 06:12:41;;;;;;;32.97;20.88;;;9.00;99.90;;;;;;5977198;23;20031;-90
2022/12/26 06:15:07;;;;;;;34.25;20.65;;;9.00;99.90;;;;;;5976221;23;20097;-90
2022/12/26 06:17:35;;;;;;;34.95;21.02;;;9.00;99.90;;;;;;5977767;23;20011;-89
2022/12/26 06:20:01;;;;;;;30.92;19.80;;;9.00;99.90;;;;;;6000518;23;20384;-89
2022/12/26 06:22:30;;;;;;;31.65;21.30;;;9.10;99.90;;;;;;6000838;23;20050;-89
2022/12/26 06:24:56;;;;;;;33.15;19.98;;;9.00;99.90;;;;;;5976911;23;20051;-89
2022/12/26 06:27:21;;;;;;;32.47;19.35;;;9.00;99.90;;;;;;5977046;23;20077;-89
2022/12/26 06:29:47;;;;;;;30.80;19.92;;;9.00;99.90;;;;;;6000554;23;20067;-89
2022/12/26 06:32:17;;;;;;;32.97;19.90;;;9.00;99.90;;;;;;5976601;23;20106;-88
2022/12/26 06:34:42;;;;;;;33.83;19.80;;;9.10;99.90;;;;;;5976511;23;20019;-89
2022/12/26 06:37:10;;;;;;;28.02;18.42;;;9.00;99.90;;;;;;5975520;23;20023;-89
2022/12/26 06:39:39;;;;;;;32.38;19.65;;;9.10;99.90;;;;;;5978480;23;20153;-89
2022/12/26 06:42:13;;;;;;;29.33;17.08;;;9.10;99.90;;;;;;5978190;23;20019;-88
2022/12/26 06:44:39;;;;;;;33.55;19.38;;;9.10;99.90;;;;;;5977372;23;20054;-88
2022/12/26 06:47:05;;;;;;;29.70;19.13;;;9.10;99.90;;;;;;5976054;23;20391;-89
2022/12/26 06:49:30;;;;;;;29.65;18.50;;;9.10;99.90;;;;;;5975784;23;20054;-89
2022/12/26 06:51:56;;;;;;;26.77;18.85;;;9.10;99.90;;;;;;5976327;23;20023;-88
2022/12/26 06:54:21;;;;;;;27.55;17.98;;;9.10;99.90;;;;;;5972472;23;20306;-90
2022/12/26 06:56:47;;;;;;;30.10;18.65;;;9.00;99.90;;;;;;5973495;23;20133;-89
2022/12/26 06:59:13;;;;;;;28.10;18.20;;;9.00;99.90;;;;;;5973923;23;20202;-89
2022/12/26 07:01:38;;;;;;;28.98;18.85;;;9.00;99.90;;;;;;6003418;23;20015;-88
2022/12/26 07:04:05;;;;;;;27.77;18.38;;;9.10;99.90;;;;;;5997300;23;20436;-90
2022/12/26 07:06:36;;;;;;;28.23;18.73;;;9.00;99.90;;;;;;6021950;23;20095;-89
2022/12/26 07:09:08;;;;;;;28.67;18.38;;;9.00;99.90;;;;;;5997716;23;20015;-89
2022/12/26 07:11:36;;;;;;;27.27;18.00;;;9.00;99.90;;;;;;5998003;23;20075;-90
2022/12/26 07:14:03;;;;;;;28.40;17.25;;;9.10;99.90;;;;;;5997255;23;20460;-88
2022/12/26 07:16:39;;;;;;;24.63;17.38;;;9.10;99.90;;;;;;6020255;23;20074;-88
2022/12/26 07:19:05;;;;;;;27.58;17.92;;;9.10;99.90;;;;;;6020412;23;20019;-89
2022/12/26 07:21:31;;;;;;;26.55;17.27;;;9.10;99.90;;;;;;5997737;23;20042;-89
2022/12/26 07:23:57;;;;;;;25.73;16.95;;;9.10;99.90;;;;;;6020789;23;20437;-89
2022/12/26 07:26:24;;;;;;;25.55;16.50;;;9.10;99.90;;;;;;5997566;23;20496;-89
2022/12/26 07:28:57;;;;;;;27.45;16.17;;;9.00;99.90;;;;;;5997801;23;20023;-90
2022/12/26 07:31:23;;;;;;;28.27;16.48;;;9.10;99.90;;;;;;5998568;23;20255;-88
2022/12/26 07:33:54;;;;;;;24.23;16.48;;;9.10;99.90;;;;;;6020613;23;20023;-89
2022/12/26 07:36:21;;;;;;;26.30;16.23;;;9.00;99.90;;;;;;6021567;23;20318;-89
2022/12/26 07:38:47;;;;;;;23.30;14.77;;;9.00;99.90;;;;;;5998719;23;20016;-90
2022/12/26 07:44:00;;;;;;;21.65;13.68;;;9.00;99.90;;;;;;6021014;23;20033;-90
2022/12/26 07:46:25;;;;;;;22.88;13.45;;;9.00;99.90;;;;;;5998534;23;20023;-89
2022/12/26 07:48:51;;;;;;;23.98;13.27;;;8.90;99.90;;;;;;6021242;23;20339;-90
2022/12/26 07:51:17;;;;;;;21.52;14.00;;;8.90;99.90;;;;;;5998661;23;20418;-90
2022/12/26 07:53:42;;;;;;;19.20;12.13;;;8.90;99.90;;;;;;5997871;23;20078;-90
2022/12/26 07:56:08;;;;;;;17.80;12.25;;;9.00;99.90;;;;;;5998894;23;20441;-89
2022/12/26 07:58:34;;;;;;;22.40;12.93;;;9.00;99.90;;;;;;5999480;23;20022;-90
2022/12/26 08:01:01;;;;;;;18.13;12.07;;;9.00;99.90;;;;;;5999520;23;20015;-89
2022/12/26 08:03:27;;;;;;;18.27;11.50;;;9.00;99.90;;;;;;6000705;23;20023;-89
2022/12/26 08:05:53;;;;;;;15.60;11.90;;;9.00;99.90;;;;;;5975686;23;20026;-90
2022/12/26 08:08:18;;;;;;;18.60;11.88;;;9.00;99.90;;;;;;5974396;23;20026;-88
2022/12/26 08:10:44;;;;;;;18.15;12.15;;;9.00;99.90;;;;;;5975823;23;20484;-90
2022/12/26 08:13:12;;;;;;;21.50;12.38;;;9.00;99.90;;;;;;5999400;23;20041;-90
2022/12/26 08:15:38;;;;;;;18.50;11.32;;;9.10;99.90;;;;;;5974293;23;20106;-89
2022/12/26 08:18:04;;;;;;;19.20;11.90;;;9.10;99.90;;;;;;5975094;23;20092;-88
2022/12/26 08:20:32;;;;;;;16.92;11.50;;;9.10;99.90;;;;;;5974831;23;20015;-89
2022/12/26 08:22:58;;;;;;;18.42;11.43;;;9.10;99.90;;;;;;5977496;23;20297;-90
2022/12/26 08:25:23;;;;;;;20.42;11.57;;;9.10;99.90;;;;;;5977959;23;20019;-89
2022/12/26 08:27:49;;;;;;;18.83;12.05;;;9.10;99.90;;;;;;6000544;23;20019;-89
2022/12/26 08:30:15;;;;;;;17.38;12.00;;;9.10;99.90;;;;;;5977283;23;20025;-89
2022/12/26 08:32:41;;;;;;;15.75;11.27;;;9.10;99.90;;;;;;5976564;23;20060;-88
2022/12/26 08:35:07;;;;;;;17.63;11.05;;;9.10;99.90;;;;;;5978455;23;20102;-88
2022/12/26 08:37:35;;;;;;;16.50;11.45;;;9.10;99.90;;;;;;6002261;23;20015;-90
2022/12/26 08:40:01;;;;;;;18.83;11.63;;;9.10;99.90;;;;;;5979676;23;20017;-89
2022/12/26 08:42:29;;;;;;;19.13;12.23;;;9.10;99.90;;;;;;6002640;23;20054;-89
2022/12/26 08:44:54;;;;;;;18.65;11.40;;;9.10;99.90;;;;;;5979002;23;20019;-90
2022/12/26 08:47:20;;;;;;;22.85;11.32;;;9.10;99.90;;;;;;5978123;23;20407;-89
2022/12/26 08:49:49;;;;;;;16.75;11.23;;;9.10;99.90;;;;;;5978525;23;20027;-89
2022/12/26 08:52:15;;;;;;;18.60;12.05;;;9.10;99.90;;;;;;6002703;23;20019;-89
2022/12/26 08:54:44;;;;;;;15.57;11.48;;;9.10;99.90;;;;;;5977846;23;20458;-89
2022/12/26 08:57:12;;;;;;;14.13;9.82;;;9.10;99.90;;;;;;5977919;23;20011;-89
2022/12/26 08:59:38;;;;;;;14.90;10.63;;;9.20;99.90;;;;;;5976078;23;20572;-90
2022/12/26 09:02:04;;;;;;;21.83;10.35;;;9.10;99.90;;;;;;5986785;23;20063;-89
2022/12/26 09:04:32;;;;;;;15.52;10.55;;;9.20;99.90;;;;;;6023702;23;20036;-88
2022/12/26 09:06:57;;;;;;;19.67;10.88;;;9.20;99.90;;;;;;5996975;23;20583;-90
2022/12/26 09:09:26;;;;;;;20.50;10.85;;;9.20;99.90;;;;;;5998473;23;20019;-89
2022/12/26 09:11:52;;;;;;;15.20;10.55;;;9.20;99.90;;;;;;5999628;23;20113;-90
2022/12/26 09:14:17;;;;;;;19.77;10.20;;;9.10;99.90;;;;;;5997817;23;20023;-89
2022/12/26 09:16:45;;;;;;;18.00;10.23;;;9.20;99.90;;;;;;6021205;23;20019;-89
2022/12/26 09:19:13;;;;;;;13.98;9.57;;;9.20;99.90;;;;;;5997274;23;20015;-89
2022/12/26 09:21:41;;;;;;;17.40;9.40;;;9.20;99.90;;;;;;5998092;23;20025;-89
2022/12/26 09:24:11;;;;;;;14.00;8.55;;;9.20;99.90;;;;;;5997904;23;20176;-89
2022/12/26 09:26:40;;;;;;;13.73;8.98;;;9.30;99.90;;;;;;5997194;23;20094;-89
2022/12/26 09:29:06;;;;;;;11.55;8.90;;;9.30;99.90;;;;;;5997220;23;20015;-90
2022/12/26 09:31:33;;;;;;;12.55;8.50;;;9.30;99.90;;;;;;5997070;23;20019;-90
2022/12/26 09:34:04;;;;;;;9.75;6.60;;;9.30;99.90;;;;;;5995913;23;20023;-89
2022/12/26 09:36:34;;;;;;;10.18;6.57;;;9.40;99.90;;;;;;5997234;23;20102;-89
2022/12/26 09:38:59;;;;;;;10.73;6.07;;;9.40;99.90;;;;;;5997525;23;20025;-90
2022/12/26 09:41:50;;;;;;;12.50;5.80;;;9.50;99.90;;;;;;6021411;23;20417;-89
2022/12/26 09:44:27;;;;;;;12.15;5.10;;;9.50;99.90;;;;;;6022461;23;20070;-89
2022/12/26 09:47:05;;;;;;;8.52;5.00;;;9.50;99.90;;;;;;6020566;23;20133;-88
2022/12/26 09:49:36;;;;;;;9.75;5.07;;;9.50;99.90;;;;;;6022335;23;20026;-89
2022/12/26 09:52:10;;;;;;;17.48;5.00;;;9.50;99.90;;;;;;5996577;23;20026;-89
2022/12/26 09:54:49;;;;;;;10.00;3.90;;;9.50;99.90;;;;;;5997629;23;20015;-89
2022/12/26 09:57:17;;;;;;;11.93;4.18;;;9.50;99.90;;;;;;6046240;23;20034;-89
2022/12/26 09:59:55;;;;;;;15.35;3.97;;;9.40;99.90;;;;;;5997158;23;20101;-89
2022/12/26 10:02:23;;;;;;;13.30;3.10;;;9.10;99.90;;;;;;5996822;23;20576;-90
2022/12/26 10:04:49;;;;;;;9.13;2.60;;;8.70;99.90;;;;;;5996715;23;20019;-89
2022/12/26 10:07:26;;;;;;;7.63;2.28;;;8.50;99.90;;;;;;6044258;23;20026;-89
2022/12/26 10:10:17;;;;;;;12.73;2.83;;;8.30;99.90;;;;;;6020814;23;20030;-88
2022/12/26 10:12:56;;;;;;;10.65;3.05;;;8.10;99.90;;;;;;5996471;23;20076;-89
2022/12/26 10:15:27;;;;;;;7.97;2.00;;;8.00;99.90;;;;;;6018524;23;20027;-89
2022/12/26 10:18:07;;;;;;;9.20;1.90;;;7.90;99.90;;;;;;6018586;23;20466;-89
2022/12/26 10:20:42;;;;;;;11.18;2.13;;;7.90;99.90;;;;;;6019486;23;20387;-89
2022/12/26 10:23:20;;;;;;;;;;;7.80;99.90;;;;;;6021013;23;20031;-89
2022/12/26 10:26:22;;;;;;;17.05;2.30;;;7.90;99.90;;;;;;6042093;23;19925;-88
2022/12/26 10:28:58;;;;;;;12.02;2.85;;;7.90;99.90;;;;;;5937579;24;20030;-89
2022/12/26 10:31:34;;;;;;;9.15;3.08;;;7.90;99.90;;;;;;5984168;23;20029;-89
2022/12/26 10:34:10;;;;;;;9.52;1.80;;;7.90;99.90;;;;;;6018150;23;20019;-89
2022/12/26 10:36:40;;;;;;;12.00;2.53;;;7.90;99.90;;;;;;5995641;23;20022;-89
2022/12/26 10:39:16;;;;;;;11.02;2.13;;;7.90;99.90;;;;;;5995617;23;20016;-89
2022/12/26 10:41:47;;;;;;;8.38;2.13;;;7.90;99.90;;;;;;6042694;23;20197;-88
2022/12/26 10:44:14;;;;;;;5.63;1.30;;;7.80;99.90;;;;;;5994136;23;20011;-89
2022/12/26 10:46:55;;;;;;;9.73;2.35;;;7.80;99.90;;;;;;5994675;23;20297;-90
2022/12/26 10:49:23;;;;;;;9.85;2.20;;;7.80;99.90;;;;;;6018063;23;20021;-89
2022/12/26 10:51:55;;;;;;;8.07;1.73;;;7.80;99.90;;;;;;6067019;23;20030;-89
2022/12/26 10:54:21;;;;;;;8.02;1.70;;;7.70;99.90;;;;;;5995635;23;20079;-89
2022/12/26 10:56:50;;;;;;;6.18;1.20;;;7.60;99.90;;;;;;5993791;23;20122;-89
2022/12/26 10:59:34;;;;;;;6.97;1.25;;;7.60;99.90;;;;;;5994503;23;20109;-89
2022/12/26 11:02:30;;;;;;;7.72;1.23;;;7.60;99.90;;;;;;6018963;23;20289;-89
2022/12/26 11:05:02;;;;;;;9.13;1.52;;;7.50;99.90;;;;;;6017038;23;20023;-88
2022/12/26 11:07:32;;;;;;;5.07;1.27;;;7.40;99.90;;;;;;6044302;23;20059;-88
2022/12/26 11:10:28;;;;;;;11.05;2.42;;;7.40;99.90;;;;;;5998207;23;20030;-87
2022/12/26 11:12:57;;;;;;;;;;;7.40;99.90;;;;;;6049648;23;20114;-84
2022/12/26 11:15:50;;;;;;;7.35;1.77;;;7.40;99.90;;;;;;6067295;23;19949;-89
2022/12/26 11:18:33;;;;;;;8.10;1.70;;;7.40;99.90;;;;;;6044551;23;20068;-89
2022/12/26 11:21:24;;;;;;;13.85;1.75;;;7.40;99.90;;;;;;5994785;23;20050;-89
2022/12/26 11:24:16;;;;;;;7.20;1.63;;;7.40;99.90;;;;;;5994848;23;20069;-88
2022/12/26 11:26:41;;;;;;;5.05;1.40;;;7.40;99.90;;;;;;5997576;23;20180;-88
2022/12/26 11:29:11;;;;;;;10.63;2.22;;;7.40;99.90;;;;;;5996039;23;20027;-89
2022/12/26 11:31:39;;;;;;;8.90;1.60;;;7.40;99.90;;;;;;6020269;23;20035;-87
2022/12/26 11:34:14;;;;;;;5.22;1.23;;;7.40;99.90;;;;;;5996269;23;20020;-90
2022/12/26 11:36:45;;;;;;;5.70;1.33;;;7.40;99.90;;;;;;5996692;23;20019;-89
2022/12/26 11:39:27;;;;;;;6.93;1.70;;;7.40;99.90;;;;;;5996156;23;20337;-89
2022/12/26 11:41:54;;;;;;;12.65;1.95;;;7.30;99.90;;;;;;5996915;23;20019;-89
2022/12/26 11:44:22;;;;;;;5.43;1.20;;;7.30;99.90;;;;;;6043938;23;20094;-88
2022/12/26 11:46:58;;;;;;;10.43;1.90;;;7.30;99.90;;;;;;6020860;23;20578;-88
2022/12/26 11:49:34;;;;;;;8.88;1.70;;;7.30;99.90;;;;;;6043511;23;20049;-89
2022/12/26 11:52:21;;;;;;;6.88;1.25;;;7.30;99.90;;;;;;5997130;23;20019;-89
2022/12/26 11:54:49;;;;;;;9.75;1.50;;;7.30;99.90;;;;;;5997221;23;20109;-89
2022/12/26 11:57:32;;;;;;;6.97;1.63;;;7.30;99.90;;;;;;5997770;23;20528;-89
2022/12/26 12:00:20;;;;;;;7.40;1.63;;;7.30;99.90;;;;;;6044732;23;20381;-89
2022/12/26 12:02:47;;;;;;;7.32;2.47;;;7.30;99.90;;;;;;5999295;23;20027;-89
2022/12/26 12:05:24;;;;;;;11.50;2.30;;;7.30;99.90;;;;;;5972459;23;20089;-88
2022/12/26 12:08:10;;;;;;;5.85;1.52;;;7.40;99.90;;;;;;6044606;23;20104;-89
2022/12/26 12:10:46;;;;;;;9.68;2.80;;;7.30;99.90;;;;;;6046295;23;20023;-90
2022/12/26 12:13:30;;;;;;;13.77;1.95;;;7.30;99.90;;;;;;5975234;23;20083;-89
2022/12/26 12:16:08;;;;;;;10.48;2.08;;;7.30;99.90;;;;;;6044994;23;20114;-89
2022/12/26 12:18:36;;;;;;;9.98;1.80;;;7.30;99.90;;;;;;6045230;23;20098;-88
2022/12/26 12:21:21;;;;;;;8.82;2.13;;;7.30;99.90;;;;;;6045629;23;20465;-89
2022/12/26 12:24:08;;;;;;;7.05;1.70;;;7.40;99.90;;;;;;5975265;23;20023;-89
2022/12/26 12:26:36;;;;;;;8.95;1.77;;;7.40;99.90;;;;;;6050163;23;20023;-88
2022/12/26 12:29:14;;;;;;;9.80;2.03;;;7.40;99.90;;;;;;6046403;23;20449;-89
2022/12/26 12:32:30;;;;;;;14.18;2.10;;;7.30;99.90;;;;;;6048587;23;20019;-89
2022/12/26 12:35:18;;;;;;;9.40;1.80;;;7.40;99.90;;;;;;5890665;24;20021;-86
2022/12/26 12:38:39;;;;;;;10.55;2.58;;;7.30;99.90;;;;;;5895827;24;20020;-89
2022/12/26 12:41:32;;;;;;;9.45;2.10;;;7.40;99.90;;;;;;5899983;23;20075;-88
2022/12/26 12:44:37;;;;;;;14.55;2.88;;;7.40;99.90;;;;;;5973045;23;20114;-89
2022/12/26 12:47:09;;;;;;;11.77;2.75;;;7.40;99.90;;;;;;5891182;24;20164;-88
2022/12/26 12:49:45;;;;;;;10.07;2.05;;;7.30;99.90;;;;;;5959044;23;20078;-90
2022/12/26 12:52:52;;;;;;;15.10;2.60;;;7.20;99.90;;;;;;6045537;23;20023;-88
2022/12/26 12:55:35;;;;;;;16.45;2.35;;;7.20;99.90;;;;;;5890840;24;20387;-88
2022/12/26 12:58:16;;;;;;;11.20;2.22;;;7.10;99.90;;;;;;5993544;23;20019;-89
2022/12/26 13:01:04;;;;;;;12.95;2.40;;;7.00;99.90;;;;;;5972999;23;20019;-87
2022/12/26 13:03:38;;;;;;;10.35;2.47;;;7.00;99.90;;;;;;6021336;23;20323;-87
2022/12/26 13:06:28;;;;;;;13.38;2.50;;;7.00;99.90;;;;;;5975495;23;20102;-88
2022/12/26 13:09:14;;;;;;;9.07;1.88;;;7.00;99.90;;;;;;5976704;23;20445;-87
2022/12/26 13:12:03;;;;;;;7.78;2.15;;;7.00;99.90;;;;;;5961326;23;20023;-89
2022/12/26 13:14:38;;;;;;;12.48;2.58;;;7.00;99.90;;;;;;6021940;23;20338;-87
2022/12/26 13:17:19;;;;;;;14.88;2.60;;;7.20;99.90;;;;;;5975627;23;20018;-89
2022/12/26 13:20:03;;;;;;;15.38;1.95;;;7.20;99.90;;;;;;5976087;23;20444;-90
2022/12/26 13:25:27;;;;;;;;;;;7.00;99.90;;;;;;6047945;23;20097;-89
2022/12/26 13:28:08;;;;;;;9.23;2.40;;;7.00;99.90;;;;;;6022814;23;20363;-88
2022/12/26 13:30:34;;;;;;;11.65;2.22;;;7.00;99.90;;;;;;5976622;23;20436;-87
2022/12/26 13:33:01;;;;;;;19.00;2.90;;;7.10;99.90;;;;;;6047501;23;20019;-89
2022/12/26 13:35:52;;;;;;;15.05;2.85;;;7.40;99.90;;;;;;5975809;23;20011;-88
2022/12/26 13:38:20;;;;;;;10.18;2.08;;;7.50;99.90;;;;;;6047410;23;20442;-88
2022/12/26 13:44:06;;;;;;;11.07;2.10;;;7.60;99.90;;;;;;6045000;23;20023;-88
2022/12/26 13:46:40;;;;;;;11.55;2.72;;;7.70;99.90;;;;;;5976040;23;20683;-87
2022/12/26 13:49:27;;;;;;;9.43;2.20;;;7.40;99.90;;;;;;6044468;23;20533;-88
2022/12/26 13:51:56;;;;;;;14.32;3.80;;;7.20;99.90;;;;;;6045779;23;20075;-89
2022/12/26 13:54:24;;;;;;;11.95;2.42;;;7.10;99.90;;;;;;5974074;23;20464;-89
2022/12/26 13:57:08;;;;;;;14.35;2.50;;;7.00;99.90;;;;;;5998959;23;20047;-88
2022/12/26 14:00:16;;;;;;;10.20;2.00;;;7.00;99.90;;;;;;6046096;23;20079;-88
2022/12/26 14:02:51;;;;;;;9.93;2.28;;;6.90;99.90;;;;;;6017865;23;20539;-89
2022/12/26 14:05:38;;;;;;;8.20;1.80;;;6.90;99.90;;;;;;6023759;23;20019;-88
2022/12/26 14:08:13;;;;;;;12.07;2.30;;;6.90;99.90;;;;;;6070555;23;20026;-88
2022/12/26 14:10:44;;;;;;;;;;;6.80;99.90;;;;;;6023036;23;20023;-89
2022/12/26 14:13:48;;;;;;;12.50;2.53;;;6.70;99.90;;;;;;6070359;23;19925;-87
2022/12/26 14:16:52;;;;;;;12.27;2.00;;;6.60;99.90;;;;;;6045224;23;20030;-88
2022/12/26 14:19:27;;;;;;;10.75;2.50;;;6.60;99.90;;;;;;5970533;23;20419;-89
2022/12/26 14:22:03;;;;;;;12.07;3.30;;;6.50;99.90;;;;;;6021914;23;20366;-87
2022/12/26 14:24:35;;;;;;;15.02;2.67;;;6.50;99.90;;;;;;6046914;23;20015;-88
2022/12/26 14:27:28;;;;;;;13.05;2.10;;;6.40;99.90;;;;;;6022210;23;20015;-88
2022/12/26 14:30:06;;;;;;;13.48;2.78;;;6.40;99.90;;;;;;6022322;23;20019;-88
2022/12/26 14:32:52;;;;;;;15.10;2.72;;;6.40;99.90;;;;;;6068671;23;20019;-88
2022/12/26 14:35:30;;;;;;;14.32;2.17;;;6.30;99.90;;;;;;6022533;23;20333;-88
2022/12/26 14:37:58;;;;;;;14.02;2.63;;;6.20;99.90;;;;;;6023520;23;20111;-88
2022/12/26 14:40:34;;;;;;;13.38;2.72;;;6.20;99.90;;;;;;6022727;23;20067;-88
2022/12/26 14:43:15;;;;;;;13.85;2.65;;;6.10;99.90;;;;;;5998875;23;20349;-88
2022/12/26 14:45:49;;;;;;;14.95;2.95;;;6.10;99.90;;;;;;6022503;23;20771;-88
2022/12/26 14:48:15;;;;;;;11.35;2.15;;;6.00;99.90;;;;;;5998474;23;20098;-87
2022/12/26 14:50:52;;;;;;;16.55;3.05;;;6.00;99.90;;;;;;6022163;23;20102;-88
2022/12/26 14:53:26;;;;;;;12.60;2.42;;;5.90;99.90;;;;;;5998520;23;20027;-87
2022/12/26 14:56:23;;;;;;;9.40;2.30;;;5.90;99.90;;;;;;6023704;23;20039;-88
2022/12/26 14:59:13;;;;;;;11.82;2.55;;;5.90;99.90;;;;;;5998133;23;20471;-88
2022/12/26 15:01:42;;;;;;;10.52;2.55;;;5.90;99.90;;;;;;5997833;23;20028;-88
2022/12/26 15:04:08;;;;;;;8.82;1.98;;;5.90;99.90;;;;;;6042276;23;20031;-89
2022/12/26 15:07:28;;;;;;;12.43;3.05;;;5.90;99.90;;;;;;6023166;23;20019;-88
2022/12/26 15:10:32;;;;;;;7.68;1.95;;;5.90;99.90;;;;;;5938315;24;20348;-88
2022/12/26 15:13:25;;;;;;;14.00;2.78;;;5.80;99.90;;;;;;6022251;23;20031;-89
2022/12/26 15:16:06;;;;;;;13.60;2.70;;;5.80;99.90;;;;;;6045838;23;20015;-88
2022/12/26 15:19:00;;;;;;;8.93;2.45;;;5.70;99.90;;;;;;6023406;23;20039;-88
2022/12/26 15:21:35;;;;;;;13.30;2.45;;;5.80;99.90;;;;;;6022426;23;20086;-88
2022/12/26 15:24:10;;;;;;;17.17;2.78;;;5.80;99.90;;;;;;6022965;23;20015;-88
2022/12/26 15:26:39;;;;;;;16.73;2.80;;;5.70;99.90;;;;;;6023125;23;20474;-88
2022/12/26 15:29:36;;;;;;;8.50;2.35;;;5.60;99.90;;;;;;6022628;23;20058;-87